sensor_id;sensor_type;location;lat;lon;timestamp;P1;durP1;ratioP1;P2;durP2;ratioP2
34491;SDS011;20737;49.908;8.126;2023-04-25T00:00:19;5.45;;;3.70;;
34491;SDS011;20737;49.908;8.126;2023-04-25T00:02:47;4.63;;;3.20;;
34491;SDS011;20737;49.908;8.126;2023-04-25T00:05:14;5.03;;;3.53;;
34491;SDS011;20737;49.908;8.126;2023-04-25T00:07:41;5.95;;;3.58;;
34491;SDS011;20737;49.908;8.126;2023-04-25T00:10:08;5.88;;;3.30;;
34491;SDS011;20737;49.908;8.126;2023-04-25T00:12:36;4.68;;;3.15;;
34491;SDS011;20737;49.908;8.126;2023-04-25T00:15:03;6.70;;;3.42;;
34491;SDS011;20737;49.908;8.126;2023-04-25T00:17:30;5.53;;;3.53;;
34491;SDS011;20737;49.908;8.126;2023-04-25T00:19:58;7.05;;;3.67;;
34491;SDS011;20737;49.908;8.126;2023-04-25T00:22:25;4.63;;;3.38;;
34491;SDS011;20737;49.908;8.126;2023-04-25T00:24:52;5.20;;;3.28;;
34491;SDS011;20737;49.908;8.126;2023-04-25T00:27:22;7.13;;;3.70;;
34491;SDS011;20737;49.908;8.126;2023-04-25T00:29:48;5.57;;;3.35;;
34491;SDS011;20737;49.908;8.126;2023-04-25T00:32:15;7.97;;;3.88;;
34491;SDS011;20737;49.908;8.126;2023-04-25T00:34:42;4.80;;;3.45;;
34491;SDS011;20737;49.908;8.126;2023-04-25T00:37:10;3.75;;;2.88;;
34491;SDS011;20737;49.908;8.126;2023-04-25T00:39:37;6.07;;;3.92;;
34491;SDS011;20737;49.908;8.126;2023-04-25T00:42:04;6.70;;;3.50;;
34491;SDS011;20737;49.908;8.126;2023-04-25T00:44:31;4.35;;;3.13;;
34491;SDS011;20737;49.908;8.126;2023-04-25T00:47:00;5.13;;;3.60;;
34491;SDS011;20737;49.908;8.126;2023-04-25T00:49:28;4.72;;;3.45;;
34491;SDS011;20737;49.908;8.126;2023-04-25T00:51:56;5.25;;;3.47;;
34491;SDS011;20737;49.908;8.126;2023-04-25T00:54:24;5.30;;;3.40;;
34491;SDS011;20737;49.908;8.126;2023-04-25T00:56:51;5.72;;;3.53;;
34491;SDS011;20737;49.908;8.126;2023-04-25T00:59:18;5.53;;;3.67;;
34491;SDS011;20737;49.908;8.126;2023-04-25T01:01:45;4.25;;;3.40;;
34491;SDS011;20737;49.908;8.126;2023-04-25T01:04:12;6.18;;;3.83;;
34491;SDS011;20737;49.908;8.126;2023-04-25T01:06:39;5.20;;;3.47;;
34491;SDS011;20737;49.908;8.126;2023-04-25T01:09:06;4.70;;;3.72;;
34491;SDS011;20737;49.908;8.126;2023-04-25T01:11:34;5.72;;;4.07;;
34491;SDS011;20737;49.908;8.126;2023-04-25T01:14:01;4.88;;;3.80;;
34491;SDS011;20737;49.908;8.126;2023-04-25T01:16:28;5.85;;;4.00;;
34491;SDS011;20737;49.908;8.126;2023-04-25T01:18:55;5.57;;;3.70;;
34491;SDS011;20737;49.908;8.126;2023-04-25T01:21:23;8.75;;;4.25;;
34491;SDS011;20737;49.908;8.126;2023-04-25T01:23:53;4.80;;;3.50;;
34491;SDS011;20737;49.908;8.126;2023-04-25T01:26:20;5.35;;;3.80;;
34491;SDS011;20737;49.908;8.126;2023-04-25T01:28:48;5.85;;;3.80;;
34491;SDS011;20737;49.908;8.126;2023-04-25T01:31:16;7.90;;;4.55;;
34491;SDS011;20737;49.908;8.126;2023-04-25T01:33:44;7.85;;;4.45;;
34491;SDS011;20737;49.908;8.126;2023-04-25T01:36:12;6.13;;;4.38;;
34491;SDS011;20737;49.908;8.126;2023-04-25T01:38:40;4.65;;;3.55;;
34491;SDS011;20737;49.908;8.126;2023-04-25T01:41:08;8.60;;;4.15;;
34491;SDS011;20737;49.908;8.126;2023-04-25T01:43:35;6.05;;;4.20;;
34491;SDS011;20737;49.908;8.126;2023-04-25T01:46:02;6.95;;;4.30;;
34491;SDS011;20737;49.908;8.126;2023-04-25T01:48:29;5.10;;;4.07;;
34491;SDS011;20737;49.908;8.126;2023-04-25T01:50:56;5.20;;;4.03;;
34491;SDS011;20737;49.908;8.126;2023-04-25T01:53:23;5.82;;;3.88;;
34491;SDS011;20737;49.908;8.126;2023-04-25T01:55:52;7.53;;;4.15;;
34491;SDS011;20737;49.908;8.126;2023-04-25T01:58:19;7.22;;;4.05;;
34491;SDS011;20737;49.908;8.126;2023-04-25T02:00:45;6.35;;;4.57;;
34491;SDS011;20737;49.908;8.126;2023-04-25T02:03:12;6.95;;;4.82;;
34491;SDS011;20737;49.908;8.126;2023-04-25T02:05:39;7.97;;;4.75;;
34491;SDS011;20737;49.908;8.126;2023-04-25T02:08:06;7.75;;;4.65;;
34491;SDS011;20737;49.908;8.126;2023-04-25T02:10:34;6.28;;;4.88;;
34491;SDS011;20737;49.908;8.126;2023-04-25T02:13:03;5.18;;;4.40;;
34491;SDS011;20737;49.908;8.126;2023-04-25T02:15:30;6.05;;;4.05;;
34491;SDS011;20737;49.908;8.126;2023-04-25T02:17:57;7.63;;;4.75;;
34491;SDS011;20737;49.908;8.126;2023-04-25T02:20:25;8.10;;;4.50;;
34491;SDS011;20737;49.908;8.126;2023-04-25T02:22:52;5.68;;;3.95;;
34491;SDS011;20737;49.908;8.126;2023-04-25T02:25:19;7.50;;;4.82;;
34491;SDS011;20737;49.908;8.126;2023-04-25T02:27:46;6.43;;;4.22;;
34491;SDS011;20737;49.908;8.126;2023-04-25T02:30:14;5.38;;;4.00;;
34491;SDS011;20737;49.908;8.126;2023-04-25T02:32:42;8.00;;;4.53;;
34491;SDS011;20737;49.908;8.126;2023-04-25T02:35:09;7.63;;;4.38;;
34491;SDS011;20737;49.908;8.126;2023-04-25T02:37:37;7.22;;;4.38;;
34491;SDS011;20737;49.908;8.126;2023-04-25T02:40:05;5.03;;;4.10;;
34491;SDS011;20737;49.908;8.126;2023-04-25T02:42:33;8.95;;;4.50;;
34491;SDS011;20737;49.908;8.126;2023-04-25T02:45:00;6.82;;;3.90;;
34491;SDS011;20737;49.908;8.126;2023-04-25T02:47:28;6.40;;;3.85;;
34491;SDS011;20737;49.908;8.126;2023-04-25T02:49:55;8.05;;;4.70;;
34491;SDS011;20737;49.908;8.126;2023-04-25T02:52:22;6.22;;;3.90;;
34491;SDS011;20737;49.908;8.126;2023-04-25T02:54:48;5.07;;;4.07;;
34491;SDS011;20737;49.908;8.126;2023-04-25T02:57:15;5.63;;;3.85;;
34491;SDS011;20737;49.908;8.126;2023-04-25T02:59:42;7.03;;;4.25;;
34491;SDS011;20737;49.908;8.126;2023-04-25T03:02:09;8.35;;;4.63;;
34491;SDS011;20737;49.908;8.126;2023-04-25T03:04:37;6.63;;;4.43;;
34491;SDS011;20737;49.908;8.126;2023-04-25T03:07:04;6.68;;;4.32;;
34491;SDS011;20737;49.908;8.126;2023-04-25T03:09:31;8.57;;;4.78;;
34491;SDS011;20737;49.908;8.126;2023-04-25T03:11:57;6.38;;;4.25;;
34491;SDS011;20737;49.908;8.126;2023-04-25T03:14:25;7.22;;;4.40;;
34491;SDS011;20737;49.908;8.126;2023-04-25T03:16:52;7.78;;;5.30;;
34491;SDS011;20737;49.908;8.126;2023-04-25T03:19:18;6.75;;;4.40;;
34491;SDS011;20737;49.908;8.126;2023-04-25T03:21:46;6.57;;;4.25;;
34491;SDS011;20737;49.908;8.126;2023-04-25T03:24:13;8.07;;;4.88;;
34491;SDS011;20737;49.908;8.126;2023-04-25T03:26:40;6.15;;;4.07;;
34491;SDS011;20737;49.908;8.126;2023-04-25T03:29:07;7.10;;;4.50;;
34491;SDS011;20737;49.908;8.126;2023-04-25T03:31:33;8.13;;;4.50;;
34491;SDS011;20737;49.908;8.126;2023-04-25T03:34:00;6.22;;;4.20;;
34491;SDS011;20737;49.908;8.126;2023-04-25T03:36:27;7.40;;;4.38;;
34491;SDS011;20737;49.908;8.126;2023-04-25T03:38:55;6.47;;;4.72;;
34491;SDS011;20737;49.908;8.126;2023-04-25T03:41:22;6.95;;;4.65;;
34491;SDS011;20737;49.908;8.126;2023-04-25T03:43:48;7.35;;;4.28;;
34491;SDS011;20737;49.908;8.126;2023-04-25T03:46:15;6.32;;;4.57;;
34491;SDS011;20737;49.908;8.126;2023-04-25T03:48:42;5.85;;;3.65;;
34491;SDS011;20737;49.908;8.126;2023-04-25T03:51:08;6.57;;;4.30;;
34491;SDS011;20737;49.908;8.126;2023-04-25T03:53:35;6.68;;;4.47;;
34491;SDS011;20737;49.908;8.126;2023-04-25T03:56:03;6.93;;;4.40;;
34491;SDS011;20737;49.908;8.126;2023-04-25T03:58:30;6.38;;;4.18;;
34491;SDS011;20737;49.908;8.126;2023-04-25T04:00:57;7.07;;;4.32;;
34491;SDS011;20737;49.908;8.126;2023-04-25T04:03:24;6.82;;;4.45;;
34491;SDS011;20737;49.908;8.126;2023-04-25T04:05:51;6.90;;;4.25;;
34491;SDS011;20737;49.908;8.126;2023-04-25T04:08:18;6.60;;;4.28;;
34491;SDS011;20737;49.908;8.126;2023-04-25T04:10:44;6.90;;;4.60;;
34491;SDS011;20737;49.908;8.126;2023-04-25T04:13:13;8.20;;;5.00;;
34491;SDS011;20737;49.908;8.126;2023-04-25T04:15:40;7.25;;;4.63;;
34491;SDS011;20737;49.908;8.126;2023-04-25T04:18:07;8.05;;;4.88;;
34491;SDS011;20737;49.908;8.126;2023-04-25T04:20:34;7.03;;;4.93;;
34491;SDS011;20737;49.908;8.126;2023-04-25T04:23:01;11.30;;;5.32;;
34491;SDS011;20737;49.908;8.126;2023-04-25T04:25:28;11.63;;;7.30;;
34491;SDS011;20737;49.908;8.126;2023-04-25T04:27:55;12.98;;;6.78;;
34491;SDS011;20737;49.908;8.126;2023-04-25T04:30:23;12.55;;;7.25;;
34491;SDS011;20737;49.908;8.126;2023-04-25T04:32:50;13.85;;;7.57;;
34491;SDS011;20737;49.908;8.126;2023-04-25T04:35:17;12.32;;;6.85;;
34491;SDS011;20737;49.908;8.126;2023-04-25T04:37:44;14.40;;;6.25;;
34491;SDS011;20737;49.908;8.126;2023-04-25T04:40:11;14.43;;;6.75;;
34491;SDS011;20737;49.908;8.126;2023-04-25T04:42:40;16.10;;;7.13;;
34491;SDS011;20737;49.908;8.126;2023-04-25T04:45:07;11.82;;;6.70;;
34491;SDS011;20737;49.908;8.126;2023-04-25T04:47:36;14.02;;;8.05;;
34491;SDS011;20737;49.908;8.126;2023-04-25T04:50:04;17.02;;;7.85;;
34491;SDS011;20737;49.908;8.126;2023-04-25T04:52:32;15.20;;;7.35;;
34491;SDS011;20737;49.908;8.126;2023-04-25T04:54:58;13.05;;;7.13;;
34491;SDS011;20737;49.908;8.126;2023-04-25T04:57:25;12.43;;;6.05;;
34491;SDS011;20737;49.908;8.126;2023-04-25T04:59:53;12.85;;;6.45;;
34491;SDS011;20737;49.908;8.126;2023-04-25T05:02:20;13.25;;;6.03;;
34491;SDS011;20737;49.908;8.126;2023-04-25T05:04:48;13.25;;;6.72;;
34491;SDS011;20737;49.908;8.126;2023-04-25T05:07:16;11.40;;;5.43;;
34491;SDS011;20737;49.908;8.126;2023-04-25T05:09:43;11.48;;;6.10;;
34491;SDS011;20737;49.908;8.126;2023-04-25T05:12:10;9.38;;;4.93;;
34491;SDS011;20737;49.908;8.126;2023-04-25T05:14:37;11.70;;;5.68;;
34491;SDS011;20737;49.908;8.126;2023-04-25T05:17:03;7.30;;;4.97;;
34491;SDS011;20737;49.908;8.126;2023-04-25T05:19:33;10.45;;;4.88;;
34491;SDS011;20737;49.908;8.126;2023-04-25T05:22:01;9.00;;;4.40;;
34491;SDS011;20737;49.908;8.126;2023-04-25T05:24:28;11.90;;;3.90;;
34491;SDS011;20737;49.908;8.126;2023-04-25T05:26:55;9.23;;;4.63;;
34491;SDS011;20737;49.908;8.126;2023-04-25T05:29:22;10.68;;;4.28;;
34491;SDS011;20737;49.908;8.126;2023-04-25T05:31:49;7.22;;;3.63;;
34491;SDS011;20737;49.908;8.126;2023-04-25T05:34:15;12.20;;;4.50;;
34491;SDS011;20737;49.908;8.126;2023-04-25T05:36:42;11.27;;;4.55;;
34491;SDS011;20737;49.908;8.126;2023-04-25T05:39:10;12.88;;;5.07;;
34491;SDS011;20737;49.908;8.126;2023-04-25T05:41:37;14.48;;;4.28;;
34491;SDS011;20737;49.908;8.126;2023-04-25T05:44:04;10.07;;;4.88;;
34491;SDS011;20737;49.908;8.126;2023-04-25T05:46:31;7.25;;;4.05;;
34491;SDS011;20737;49.908;8.126;2023-04-25T05:48:58;9.80;;;5.10;;
34491;SDS011;20737;49.908;8.126;2023-04-25T05:51:25;12.57;;;4.55;;
34491;SDS011;20737;49.908;8.126;2023-04-25T05:53:52;10.45;;;5.32;;
34491;SDS011;20737;49.908;8.126;2023-04-25T05:56:20;9.38;;;4.97;;
34491;SDS011;20737;49.908;8.126;2023-04-25T05:58:47;11.85;;;5.20;;
34491;SDS011;20737;49.908;8.126;2023-04-25T06:01:14;12.57;;;5.53;;
34491;SDS011;20737;49.908;8.126;2023-04-25T06:03:40;11.60;;;5.38;;
34491;SDS011;20737;49.908;8.126;2023-04-25T06:06:08;11.60;;;4.97;;
34491;SDS011;20737;49.908;8.126;2023-04-25T06:08:35;11.45;;;6.07;;
34491;SDS011;20737;49.908;8.126;2023-04-25T06:11:02;13.13;;;5.72;;
34491;SDS011;20737;49.908;8.126;2023-04-25T06:13:31;9.90;;;4.30;;
34491;SDS011;20737;49.908;8.126;2023-04-25T06:15:58;10.15;;;4.53;;
34491;SDS011;20737;49.908;8.126;2023-04-25T06:18:24;13.40;;;5.30;;
34491;SDS011;20737;49.908;8.126;2023-04-25T06:20:51;14.30;;;5.07;;
34491;SDS011;20737;49.908;8.126;2023-04-25T06:23:18;12.68;;;5.07;;
34491;SDS011;20737;49.908;8.126;2023-04-25T06:25:44;16.02;;;4.60;;
34491;SDS011;20737;49.908;8.126;2023-04-25T06:28:11;9.50;;;4.78;;
34491;SDS011;20737;49.908;8.126;2023-04-25T06:30:39;8.75;;;4.75;;
34491;SDS011;20737;49.908;8.126;2023-04-25T06:33:06;8.98;;;4.85;;
34491;SDS011;20737;49.908;8.126;2023-04-25T06:35:34;14.45;;;4.72;;
34491;SDS011;20737;49.908;8.126;2023-04-25T06:38:00;11.18;;;4.68;;
34491;SDS011;20737;49.908;8.126;2023-04-25T06:40:27;12.27;;;4.53;;
34491;SDS011;20737;49.908;8.126;2023-04-25T06:42:54;8.32;;;3.92;;
34491;SDS011;20737;49.908;8.126;2023-04-25T06:45:21;10.57;;;4.95;;
34491;SDS011;20737;49.908;8.126;2023-04-25T06:47:49;10.70;;;4.28;;
34491;SDS011;20737;49.908;8.126;2023-04-25T06:50:15;8.98;;;4.43;;
34491;SDS011;20737;49.908;8.126;2023-04-25T06:52:42;8.50;;;4.50;;
34491;SDS011;20737;49.908;8.126;2023-04-25T06:55:09;8.25;;;3.78;;
34491;SDS011;20737;49.908;8.126;2023-04-25T06:57:35;9.95;;;4.25;;
34491;SDS011;20737;49.908;8.126;2023-04-25T07:00:02;7.38;;;2.97;;
34491;SDS011;20737;49.908;8.126;2023-04-25T07:02:33;6.82;;;3.35;;
34491;SDS011;20737;49.908;8.126;2023-04-25T07:05:02;7.03;;;3.70;;
34491;SDS011;20737;49.908;8.126;2023-04-25T07:07:29;12.43;;;3.72;;
34491;SDS011;20737;49.908;8.126;2023-04-25T07:09:56;11.88;;;3.95;;
34491;SDS011;20737;49.908;8.126;2023-04-25T07:12:22;12.52;;;5.57;;
34491;SDS011;20737;49.908;8.126;2023-04-25T07:14:49;11.15;;;4.90;;
34491;SDS011;20737;49.908;8.126;2023-04-25T07:17:16;8.52;;;4.18;;
34491;SDS011;20737;49.908;8.126;2023-04-25T07:19:44;12.05;;;4.13;;
34491;SDS011;20737;49.908;8.126;2023-04-25T07:22:12;7.32;;;3.95;;
34491;SDS011;20737;49.908;8.126;2023-04-25T07:24:38;12.45;;;4.40;;
34491;SDS011;20737;49.908;8.126;2023-04-25T07:27:05;8.23;;;3.90;;
34491;SDS011;20737;49.908;8.126;2023-04-25T07:29:32;9.20;;;3.78;;
34491;SDS011;20737;49.908;8.126;2023-04-25T07:32:02;6.78;;;3.72;;
34491;SDS011;20737;49.908;8.126;2023-04-25T07:34:29;9.02;;;3.78;;
34491;SDS011;20737;49.908;8.126;2023-04-25T07:36:57;7.55;;;3.78;;
34491;SDS011;20737;49.908;8.126;2023-04-25T07:39:26;6.63;;;3.58;;
34491;SDS011;20737;49.908;8.126;2023-04-25T07:41:52;8.90;;;3.70;;
34491;SDS011;20737;49.908;8.126;2023-04-25T07:44:19;6.72;;;3.95;;
34491;SDS011;20737;49.908;8.126;2023-04-25T07:46:46;9.15;;;3.65;;
34491;SDS011;20737;49.908;8.126;2023-04-25T07:49:13;9.70;;;3.83;;
34491;SDS011;20737;49.908;8.126;2023-04-25T07:51:39;6.03;;;3.17;;
34491;SDS011;20737;49.908;8.126;2023-04-25T07:54:08;5.63;;;2.72;;
34491;SDS011;20737;49.908;8.126;2023-04-25T07:56:36;7.20;;;2.22;;
34491;SDS011;20737;49.908;8.126;2023-04-25T07:59:03;7.63;;;3.30;;
34491;SDS011;20737;49.908;8.126;2023-04-25T08:01:33;6.72;;;2.63;;
34491;SDS011;20737;49.908;8.126;2023-04-25T08:04:00;3.58;;;2.25;;
34491;SDS011;20737;49.908;8.126;2023-04-25T08:06:27;7.28;;;2.35;;
34491;SDS011;20737;49.908;8.126;2023-04-25T08:08:54;5.20;;;2.45;;
34491;SDS011;20737;49.908;8.126;2023-04-25T08:11:20;5.10;;;2.42;;
34491;SDS011;20737;49.908;8.126;2023-04-25T08:13:48;4.90;;;1.95;;
34491;SDS011;20737;49.908;8.126;2023-04-25T08:16:15;6.35;;;2.42;;
34491;SDS011;20737;49.908;8.126;2023-04-25T08:18:42;4.22;;;1.75;;
34491;SDS011;20737;49.908;8.126;2023-04-25T08:21:09;5.30;;;2.00;;
34491;SDS011;20737;49.908;8.126;2023-04-25T08:23:36;3.60;;;2.00;;
34491;SDS011;20737;49.908;8.126;2023-04-25T08:26:03;5.75;;;2.00;;
34491;SDS011;20737;49.908;8.126;2023-04-25T08:28:30;6.35;;;2.10;;
34491;SDS011;20737;49.908;8.126;2023-04-25T08:30:58;3.78;;;2.10;;
34491;SDS011;20737;49.908;8.126;2023-04-25T08:33:25;5.20;;;1.75;;
34491;SDS011;20737;49.908;8.126;2023-04-25T08:35:52;3.53;;;1.80;;
34491;SDS011;20737;49.908;8.126;2023-04-25T08:38:19;4.38;;;1.77;;
34491;SDS011;20737;49.908;8.126;2023-04-25T08:40:47;3.17;;;1.75;;
34491;SDS011;20737;49.908;8.126;2023-04-25T08:43:17;5.45;;;1.70;;
34491;SDS011;20737;49.908;8.126;2023-04-25T08:45:45;4.95;;;1.75;;
34491;SDS011;20737;49.908;8.126;2023-04-25T08:48:14;5.75;;;2.33;;
34491;SDS011;20737;49.908;8.126;2023-04-25T08:50:44;3.20;;;2.22;;
34491;SDS011;20737;49.908;8.126;2023-04-25T08:53:15;6.35;;;2.15;;
34491;SDS011;20737;49.908;8.126;2023-04-25T08:55:45;4.55;;;1.63;;
34491;SDS011;20737;49.908;8.126;2023-04-25T08:58:12;3.92;;;1.42;;
34491;SDS011;20737;49.908;8.126;2023-04-25T09:00:40;2.15;;;1.55;;
34491;SDS011;20737;49.908;8.126;2023-04-25T09:03:07;4.47;;;2.15;;
34491;SDS011;20737;49.908;8.126;2023-04-25T09:05:38;2.92;;;1.98;;
34491;SDS011;20737;49.908;8.126;2023-04-25T09:08:06;3.05;;;1.92;;
34491;SDS011;20737;49.908;8.126;2023-04-25T09:10:33;3.90;;;2.03;;
34491;SDS011;20737;49.908;8.126;2023-04-25T09:13:03;3.13;;;2.22;;
34491;SDS011;20737;49.908;8.126;2023-04-25T09:15:46;3.47;;;2.22;;
34491;SDS011;20737;49.908;8.126;2023-04-25T09:18:13;2.50;;;1.90;;
34491;SDS011;20737;49.908;8.126;2023-04-25T09:20:50;3.83;;;2.08;;
34491;SDS011;20737;49.908;8.126;2023-04-25T09:23:18;6.22;;;2.40;;
34491;SDS011;20737;49.908;8.126;2023-04-25T09:25:47;3.75;;;2.40;;
34491;SDS011;20737;49.908;8.126;2023-04-25T09:28:14;2.95;;;2.30;;
34491;SDS011;20737;49.908;8.126;2023-04-25T09:30:41;4.97;;;2.50;;
34491;SDS011;20737;49.908;8.126;2023-04-25T09:33:09;2.85;;;1.85;;
34491;SDS011;20737;49.908;8.126;2023-04-25T09:35:37;5.05;;;2.40;;
34491;SDS011;20737;49.908;8.126;2023-04-25T09:38:10;4.60;;;2.35;;
34491;SDS011;20737;49.908;8.126;2023-04-25T09:40:41;6.22;;;2.78;;
34491;SDS011;20737;49.908;8.126;2023-04-25T09:43:09;3.92;;;2.47;;
34491;SDS011;20737;49.908;8.126;2023-04-25T09:45:43;2.72;;;2.03;;
34491;SDS011;20737;49.908;8.126;2023-04-25T09:48:10;3.80;;;2.58;;
34491;SDS011;20737;49.908;8.126;2023-04-25T09:50:38;4.63;;;2.78;;
34491;SDS011;20737;49.908;8.126;2023-04-25T09:53:05;4.80;;;2.47;;
34491;SDS011;20737;49.908;8.126;2023-04-25T09:55:34;3.60;;;2.85;;
34491;SDS011;20737;49.908;8.126;2023-04-25T09:58:03;4.93;;;2.22;;
34491;SDS011;20737;49.908;8.126;2023-04-25T10:00:32;3.70;;;2.28;;
34491;SDS011;20737;49.908;8.126;2023-04-25T10:02:59;4.18;;;2.70;;
34491;SDS011;20737;49.908;8.126;2023-04-25T10:05:29;4.57;;;2.30;;
34491;SDS011;20737;49.908;8.126;2023-04-25T10:07:59;3.53;;;3.00;;
34491;SDS011;20737;49.908;8.126;2023-04-25T10:10:29;3.72;;;2.60;;
34491;SDS011;20737;49.908;8.126;2023-04-25T10:13:02;5.00;;;2.80;;
34491;SDS011;20737;49.908;8.126;2023-04-25T10:15:31;4.70;;;3.25;;
34491;SDS011;20737;49.908;8.126;2023-04-25T10:18:01;7.88;;;3.63;;
34491;SDS011;20737;49.908;8.126;2023-04-25T10:20:28;8.25;;;4.22;;
34491;SDS011;20737;49.908;8.126;2023-04-25T10:22:57;7.40;;;3.72;;
34491;SDS011;20737;49.908;8.126;2023-04-25T10:25:28;7.07;;;3.40;;
34491;SDS011;20737;49.908;8.126;2023-04-25T10:27:55;3.67;;;2.78;;
34491;SDS011;20737;49.908;8.126;2023-04-25T10:30:23;6.82;;;3.20;;
34491;SDS011;20737;49.908;8.126;2023-04-25T10:32:50;6.65;;;3.33;;
34491;SDS011;20737;49.908;8.126;2023-04-25T10:35:23;5.30;;;2.70;;
34491;SDS011;20737;49.908;8.126;2023-04-25T10:37:58;4.55;;;2.63;;
34491;SDS011;20737;49.908;8.126;2023-04-25T10:40:26;4.25;;;2.55;;
34491;SDS011;20737;49.908;8.126;2023-04-25T10:42:53;6.38;;;3.10;;
34491;SDS011;20737;49.908;8.126;2023-04-25T10:45:21;6.82;;;3.50;;
34491;SDS011;20737;49.908;8.126;2023-04-25T10:47:49;6.28;;;2.97;;
34491;SDS011;20737;49.908;8.126;2023-04-25T10:50:16;5.38;;;3.20;;
34491;SDS011;20737;49.908;8.126;2023-04-25T10:52:43;3.45;;;3.10;;
34491;SDS011;20737;49.908;8.126;2023-04-25T10:55:10;5.20;;;3.28;;
34491;SDS011;20737;49.908;8.126;2023-04-25T10:57:38;6.55;;;3.53;;
34491;SDS011;20737;49.908;8.126;2023-04-25T11:00:07;6.22;;;3.15;;
34491;SDS011;20737;49.908;8.126;2023-04-25T11:02:43;6.30;;;3.40;;
34491;SDS011;20737;49.908;8.126;2023-04-25T11:05:17;9.52;;;3.30;;
34491;SDS011;20737;49.908;8.126;2023-04-25T11:07:49;7.28;;;4.15;;
34491;SDS011;20737;49.908;8.126;2023-04-25T11:10:17;8.43;;;3.58;;
34491;SDS011;20737;49.908;8.126;2023-04-25T11:12:45;7.57;;;3.17;;
34491;SDS011;20737;49.908;8.126;2023-04-25T11:15:12;8.38;;;3.28;;
34491;SDS011;20737;49.908;8.126;2023-04-25T11:17:39;5.22;;;2.97;;
34491;SDS011;20737;49.908;8.126;2023-04-25T11:20:11;6.78;;;3.35;;
34491;SDS011;20737;49.908;8.126;2023-04-25T11:22:40;7.90;;;3.40;;
34491;SDS011;20737;49.908;8.126;2023-04-25T11:25:08;5.07;;;2.92;;
34491;SDS011;20737;49.908;8.126;2023-04-25T11:27:37;8.30;;;3.75;;
34491;SDS011;20737;49.908;8.126;2023-04-25T11:30:12;6.38;;;3.17;;
34491;SDS011;20737;49.908;8.126;2023-04-25T11:32:40;8.93;;;3.20;;
34491;SDS011;20737;49.908;8.126;2023-04-25T11:35:08;4.82;;;3.03;;
34491;SDS011;20737;49.908;8.126;2023-04-25T11:37:35;3.95;;;2.28;;
34491;SDS011;20737;49.908;8.126;2023-04-25T11:40:03;6.78;;;2.70;;
34491;SDS011;20737;49.908;8.126;2023-04-25T11:42:32;7.45;;;2.90;;
34491;SDS011;20737;49.908;8.126;2023-04-25T11:44:59;9.70;;;3.33;;
34491;SDS011;20737;49.908;8.126;2023-04-25T11:47:29;7.28;;;3.28;;
34491;SDS011;20737;49.908;8.126;2023-04-25T11:49:57;8.27;;;3.50;;
34491;SDS011;20737;49.908;8.126;2023-04-25T11:52:34;4.95;;;3.05;;
34491;SDS011;20737;49.908;8.126;2023-04-25T11:55:05;5.15;;;3.08;;
34491;SDS011;20737;49.908;8.126;2023-04-25T11:57:36;5.88;;;3.30;;
34491;SDS011;20737;49.908;8.126;2023-04-25T12:00:05;4.63;;;3.00;;
34491;SDS011;20737;49.908;8.126;2023-04-25T12:02:36;7.32;;;3.53;;
34491;SDS011;20737;49.908;8.126;2023-04-25T12:05:05;10.35;;;3.65;;
34491;SDS011;20737;49.908;8.126;2023-04-25T12:07:33;5.50;;;3.33;;
34491;SDS011;20737;49.908;8.126;2023-04-25T12:10:05;5.70;;;3.63;;
34491;SDS011;20737;49.908;8.126;2023-04-25T12:12:33;5.70;;;2.95;;
34491;SDS011;20737;49.908;8.126;2023-04-25T12:15:08;5.75;;;2.97;;
34491;SDS011;20737;49.908;8.126;2023-04-25T12:17:35;13.27;;;3.72;;
34491;SDS011;20737;49.908;8.126;2023-04-25T12:20:05;6.70;;;3.25;;
34491;SDS011;20737;49.908;8.126;2023-04-25T12:22:33;5.20;;;3.42;;
34491;SDS011;20737;49.908;8.126;2023-04-25T12:25:05;4.13;;;2.75;;
34491;SDS011;20737;49.908;8.126;2023-04-25T12:27:32;7.13;;;3.20;;
34491;SDS011;20737;49.908;8.126;2023-04-25T12:30:00;9.02;;;2.75;;
34491;SDS011;20737;49.908;8.126;2023-04-25T12:32:28;9.13;;;3.17;;
34491;SDS011;20737;49.908;8.126;2023-04-25T12:34:55;6.20;;;2.70;;
34491;SDS011;20737;49.908;8.126;2023-04-25T12:37:22;8.95;;;2.88;;
34491;SDS011;20737;49.908;8.126;2023-04-25T12:39:49;6.30;;;3.08;;
34491;SDS011;20737;49.908;8.126;2023-04-25T12:42:17;7.28;;;3.22;;
34491;SDS011;20737;49.908;8.126;2023-04-25T12:44:44;5.85;;;2.70;;
34491;SDS011;20737;49.908;8.126;2023-04-25T12:47:11;4.95;;;3.22;;
34491;SDS011;20737;49.908;8.126;2023-04-25T12:49:38;7.60;;;3.15;;
34491;SDS011;20737;49.908;8.126;2023-04-25T12:52:05;5.30;;;2.95;;
34491;SDS011;20737;49.908;8.126;2023-04-25T12:54:31;5.55;;;3.10;;
34491;SDS011;20737;49.908;8.126;2023-04-25T12:56:58;3.95;;;2.50;;
34491;SDS011;20737;49.908;8.126;2023-04-25T12:59:27;4.70;;;2.50;;
34491;SDS011;20737;49.908;8.126;2023-04-25T13:01:55;5.85;;;2.30;;
34491;SDS011;20737;49.908;8.126;2023-04-25T13:04:22;5.75;;;2.25;;
34491;SDS011;20737;49.908;8.126;2023-04-25T13:06:49;8.52;;;3.05;;
34491;SDS011;20737;49.908;8.126;2023-04-25T13:09:15;4.55;;;2.42;;
34491;SDS011;20737;49.908;8.126;2023-04-25T13:11:42;4.13;;;2.45;;
34491;SDS011;20737;49.908;8.126;2023-04-25T13:14:09;4.88;;;2.22;;
34491;SDS011;20737;49.908;8.126;2023-04-25T13:16:37;5.22;;;2.13;;
34491;SDS011;20737;49.908;8.126;2023-04-25T13:19:03;3.33;;;2.10;;
34491;SDS011;20737;49.908;8.126;2023-04-25T13:21:32;7.22;;;2.58;;
34491;SDS011;20737;49.908;8.126;2023-04-25T13:23:59;6.43;;;2.60;;
34491;SDS011;20737;49.908;8.126;2023-04-25T13:26:26;4.22;;;2.63;;
34491;SDS011;20737;49.908;8.126;2023-04-25T13:28:52;4.55;;;2.22;;
34491;SDS011;20737;49.908;8.126;2023-04-25T13:31:19;6.22;;;2.10;;
34491;SDS011;20737;49.908;8.126;2023-04-25T13:33:47;4.60;;;2.25;;
34491;SDS011;20737;49.908;8.126;2023-04-25T13:36:14;4.22;;;2.40;;
34491;SDS011;20737;49.908;8.126;2023-04-25T13:38:41;5.97;;;2.30;;
34491;SDS011;20737;49.908;8.126;2023-04-25T13:41:09;6.93;;;2.30;;
34491;SDS011;20737;49.908;8.126;2023-04-25T13:43:41;3.28;;;1.95;;
34491;SDS011;20737;49.908;8.126;2023-04-25T13:46:07;5.70;;;2.47;;
34491;SDS011;20737;49.908;8.126;2023-04-25T13:48:34;7.72;;;1.77;;
34491;SDS011;20737;49.908;8.126;2023-04-25T13:51:03;4.80;;;2.25;;
34491;SDS011;20737;49.908;8.126;2023-04-25T13:53:29;2.78;;;1.70;;
34491;SDS011;20737;49.908;8.126;2023-04-25T13:55:56;2.75;;;1.80;;
34491;SDS011;20737;49.908;8.126;2023-04-25T13:58:23;3.75;;;1.80;;
34491;SDS011;20737;49.908;8.126;2023-04-25T14:00:50;3.70;;;1.77;;
34491;SDS011;20737;49.908;8.126;2023-04-25T14:03:16;3.00;;;1.80;;
34491;SDS011;20737;49.908;8.126;2023-04-25T14:05:45;4.03;;;1.80;;
34491;SDS011;20737;49.908;8.126;2023-04-25T14:08:13;5.00;;;2.35;;
34491;SDS011;20737;49.908;8.126;2023-04-25T14:10:40;2.80;;;2.13;;
34491;SDS011;20737;49.908;8.126;2023-04-25T14:13:06;7.25;;;3.05;;
34491;SDS011;20737;49.908;8.126;2023-04-25T14:15:33;3.10;;;1.50;;
34491;SDS011;20737;49.908;8.126;2023-04-25T14:18:00;5.22;;;1.50;;
34491;SDS011;20737;49.908;8.126;2023-04-25T14:20:27;4.43;;;1.40;;
34491;SDS011;20737;49.908;8.126;2023-04-25T14:22:54;4.28;;;1.50;;
34491;SDS011;20737;49.908;8.126;2023-04-25T14:25:24;2.15;;;1.60;;
34491;SDS011;20737;49.908;8.126;2023-04-25T14:27:51;6.60;;;1.70;;
34491;SDS011;20737;49.908;8.126;2023-04-25T14:30:18;3.83;;;1.65;;
34491;SDS011;20737;49.908;8.126;2023-04-25T14:32:46;7.10;;;1.52;;
34491;SDS011;20737;49.908;8.126;2023-04-25T14:35:13;5.75;;;2.40;;
34491;SDS011;20737;49.908;8.126;2023-04-25T14:37:40;3.00;;;1.80;;
34491;SDS011;20737;49.908;8.126;2023-04-25T14:40:08;3.40;;;1.73;;
34491;SDS011;20737;49.908;8.126;2023-04-25T14:42:38;6.25;;;1.60;;
34491;SDS011;20737;49.908;8.126;2023-04-25T14:45:06;6.00;;;1.67;;
34491;SDS011;20737;49.908;8.126;2023-04-25T14:47:33;3.90;;;1.65;;